Altona, Canada
Current Conditions -  °F | °C
As of 10:35 AM on Saturday 20 Dec 2014 (Local Time) from K2C8 Reporting Station
Haze Haze  
Wind Chill: 27°   Ceiling: 400
Heat Index: 27°   Visibility: 2mi
Dew Point: 27°   Wind: 0mph
Humidity: 100%   Direction: NA
Pressure: 29.98"   Gusts: NA
Location:  49.1°N, 97.57°W
Report Text: K2C8 201635Z AUTO 00000KT 2SM BR OVC004 M03/M03 A2998 RMK AO2
Loading
Personal Weather Stations






























Interactive Weather Map New forecast layout! Learn more

10-Day Weather Forecast

Advertisements
Track Severe Weather on mobile